STS Fryderyk Chopin — SPS2298 — position and weather

sailwx.info

Track history (hours):
 
Tides and Currents Weather Stations Pressure Air Temp Water Temp Dewpoint Dewpoint Depression Visibility Wind Speed Wind Dir Waves Ship Positions

STS Fryderyk Chopin (Poland)

Ship's website: http://www.fryderykchopin.pl/

Last reported at 2020-Aug-13 10:00 UTC. Time now 2020-Aug-13 11:44 UTC.
Position N 58°09' E 007°59'.

Length 44 m; draft 4 m.

Type: Sailing vessel. MMSI: 261000290.

Date/timePositionNaut miles runAvg speedWind from/ knotsBaromVisibWave heightAir tempDewpointWater temp
2020-Aug-13 10:00N 58°09' E 007°59'0 0.0
2020-Aug-13 08:30N 58°09' E 007°59'0 0.0
2020-Aug-13 07:30N 58°09' E 007°59'0 0.0
2020-Aug-13 06:30N 58°09' E 007°59'0 0.0
2020-Aug-13 06:00N 58°09' E 007°59'0 0.0
2020-Aug-13 05:00N 58°09' E 007°59'0 0.0
2020-Aug-13 03:00N 58°09' E 007°59'0 0.0
2020-Aug-13 02:30N 58°09' E 007°59'0 0.0
2020-Aug-13 00:30N 58°09' E 007°59'0 0.0
2020-Aug-12 23:00N 58°09' E 007°59'0 0.0
2020-Aug-12 21:30N 58°09' E 007°59'0 0.0
2020-Aug-12 21:00N 58°09' E 007°59'0 0.0
2020-Aug-12 20:30N 58°09' E 007°59'0 0.0
2020-Aug-12 17:00N 58°09' E 007°59'0 0.0
2020-Aug-12 15:00N 58°09' E 007°59'6 6.0
2020-Aug-12 14:00N 58°04' E 008°07'1610.4
2020-Aug-12 12:30N 58°07' E 008°36'19 9.7
2020-Aug-12 10:30N 58°11' E 009°12'5 9.4
2020-Aug-12 10:00N 58°12' E 009°21'13 6.7
2020-Aug-12 08:00N 58°14' E 009°46'3 1.8
2020-Aug-12 06:29N 58°13' E 009°51'9 2.7
2020-Aug-12 03:00N 58°04' E 009°54'2 3.1
2020-Aug-12 02:30N 58°02' E 009°54'7 2.3
2020-Aug-11 23:30N 57°57' E 010°03'2 3.2
2020-Aug-11 23:00N 57°57' E 010°06'6 4.0
2020-Aug-11 21:30N 57°55' E 010°17'3 6.0
2020-Aug-11 21:00N 57°55' E 010°22'7 6.5
2020-Aug-11 20:00N 57°54' E 010°34'12 4.9
2020-Aug-11 17:30N 57°52' E 010°57'22 4.8
2020-Aug-11 13:00N 57°32' E 011°14'4 2.5
2020-Aug-11 11:30N 57°29' E 011°15'7 4.4
2020-Aug-11 10:00N 57°23' E 011°20'3 5.9
2020-Aug-11 09:30N 57°20' E 011°22'17 6.7
2020-Aug-11 07:00N 57°05' E 011°35'8 7.0
2020-Aug-11 05:51N 56°57' E 011°42'6 6.4
2020-Aug-11 04:58N 56°53' E 011°47'31 6.3
2020-Aug-11 00:00N 56°25' E 012°16'18 7.3
2020-Aug-10 21:30N 56°09' E 012°30'19 5.3
2020-Aug-10 18:00N 55°53' E 012°46'36 6.5
2020-Aug-10 12:30N 55°17' E 012°49'32 7.9
2020-Aug-10 08:26N 54°53' E 013°26'79 3.9
2020-Aug-09 12:24N 53°42' E 014°28'11 7.9
2020-Aug-09 11:00N 53°33' E 014°37'7 4.6
2020-Aug-09 09:29N 53°26' E 014°34'0 0.0
2020-Aug-09 07:29N 53°26' E 014°34'0 0.0
2020-Aug-09 06:59N 53°26' E 014°34'0 0.0
2020-Aug-09 05:29N 53°26' E 014°34'0 0.0
2020-Aug-09 04:29N 53°26' E 014°34'0 0.0
2020-Aug-08 23:29N 53°26' E 014°34'0 0.0
2020-Aug-08 22:29N 53°26' E 014°34'0 0.0
2020-Aug-08 21:29N 53°26' E 014°34'0 0.0
2020-Aug-08 17:29N 53°26' E 014°34'0 0.0
2020-Aug-08 14:29N 53°26' E 014°34'0 0.0
2020-Aug-08 12:59N 53°26' E 014°34'0 0.0
2020-Aug-08 11:29N 53°26' E 014°34'0 0.0
2020-Aug-08 10:59N 53°26' E 014°34'0 0.0
2020-Aug-08 09:29N 53°26' E 014°34'0 0.0
2020-Aug-08 08:59N 53°26' E 014°34'0 0.0
2020-Aug-08 07:59N 53°26' E 014°34'1 0.2
2020-Aug-08 04:58N 53°25' E 014°34'0 0.0
2020-Aug-08 03:58N 53°25' E 014°34'0 0.0
2020-Aug-08 03:28N 53°25' E 014°34'0 0.0
2020-Aug-08 02:58N 53°25' E 014°34'0 0.0
2020-Aug-08 00:58N 53°25' E 014°34'0 0.0
2020-Aug-07 23:58N 53°25' E 014°34'0 0.0
2020-Aug-07 21:58N 53°25' E 014°34'0 0.0
2020-Aug-07 19:28N 53°25' E 014°34'0 0.0
2020-Aug-07 17:28N 53°25' E 014°34'0 0.0
2020-Aug-07 16:28N 53°25' E 014°34'0 0.0
2020-Aug-07 13:58N 53°25' E 014°34'0 0.0
2020-Aug-07 12:58N 53°25' E 014°34'0 0.0
2020-Aug-07 12:28N 53°25' E 014°34'0 0.0
2020-Aug-07 10:28N 53°25' E 014°34'0 0.0
2020-Aug-07 09:58N 53°25' E 014°34'0 0.0
2020-Aug-07 06:28N 53°25' E 014°34'0 0.0
2020-Aug-07 04:58N 53°25' E 014°34'0 0.0
2020-Aug-07 04:28N 53°25' E 014°34'0 0.0
2020-Aug-07 03:58N 53°25' E 014°34'0 0.0
2020-Aug-07 03:28N 53°25' E 014°34'0 0.0
2020-Aug-07 00:58N 53°25' E 014°34'0 0.0
2020-Aug-06 23:28N 53°25' E 014°34'0 0.0
2020-Aug-06 21:28N 53°25' E 014°34'0 0.0
2020-Aug-06 19:58N 53°25' E 014°34'0 0.0
2020-Aug-06 15:58N 53°25' E 014°34'0 0.0
2020-Aug-06 13:28N 53°25' E 014°34'0 0.0
2020-Aug-06 05:58N 53°25' E 014°34'0 0.0
2020-Aug-06 05:28N 53°25' E 014°34'0 0.0
2020-Aug-06 04:28N 53°25' E 014°34'0 0.0
2020-Aug-06 03:58N 53°25' E 014°34'12 6.1
2020-Aug-06 01:59N 53°37' E 014°35'68 5.1
2020-Aug-05 12:41N 54°36' E 015°32'23 2.8
2020-Aug-05 04:30N 54°59' E 015°32'27 6.7
2020-Aug-05 00:30N 55°24' E 015°16'13 6.7
2020-Aug-04 22:30N 55°37' E 015°08'6 4.1
2020-Aug-04 21:00N 55°42' E 015°01'3 2.6
2020-Aug-04 20:00N 55°44' E 014°59'19 6.4
2020-Aug-04 17:00N 56°03' E 014°54'25 1.0
2020-Aug-03 16:14N 55°39' E 014°41'8 9.9
2020-Aug-03 15:25N 55°32' E 014°36'13 5.3
2020-Aug-03 13:00N 55°19' E 014°37'14 6.7
2020-Aug-03 11:00N 55°06' E 014°33'  
Track history (hours):
 
Tides and Currents Weather Stations Pressure Air Temp Water Temp Dewpoint Dewpoint Depression Visibility Wind Speed Wind Dir Waves Ship Positions

STS Fryderyk Chopin (Poland)

Ship's website: http://www.fryderykchopin.pl/

Last reported at 2020-Aug-13 10:00 UTC. Time now 2020-Aug-13 11:44 UTC.
Position N 58°09' E 007°59'.

Length 44 m; draft 4 m.

Type: Sailing vessel. MMSI: 261000290.

Date/timePositionNaut miles runAvg speedWind from/ knotsBaromVisibWave heightAir tempDewpointWater temp
2020-Aug-13 10:00N 58°09' E 007°59'0 0.0
2020-Aug-13 08:30N 58°09' E 007°59'0 0.0
2020-Aug-13 07:30N 58°09' E 007°59'0 0.0
2020-Aug-13 06:30N 58°09' E 007°59'0 0.0
2020-Aug-13 06:00N 58°09' E 007°59'0 0.0
2020-Aug-13 05:00N 58°09' E 007°59'0 0.0
2020-Aug-13 03:00N 58°09' E 007°59'0 0.0
2020-Aug-13 02:30N 58°09' E 007°59'0 0.0
2020-Aug-13 00:30N 58°09' E 007°59'0 0.0
2020-Aug-12 23:00N 58°09' E 007°59'0 0.0
2020-Aug-12 21:30N 58°09' E 007°59'0 0.0
2020-Aug-12 21:00N 58°09' E 007°59'0 0.0
2020-Aug-12 20:30N 58°09' E 007°59'0 0.0
2020-Aug-12 17:00N 58°09' E 007°59'0 0.0
2020-Aug-12 15:00N 58°09' E 007°59'6 6.0
2020-Aug-12 14:00N 58°04' E 008°07'1610.4
2020-Aug-12 12:30N 58°07' E 008°36'19 9.7
2020-Aug-12 10:30N 58°11' E 009°12'5 9.4
2020-Aug-12 10:00N 58°12' E 009°21'13 6.7
2020-Aug-12 08:00N 58°14' E 009°46'3 1.8
2020-Aug-12 06:29N 58°13' E 009°51'9 2.7
2020-Aug-12 03:00N 58°04' E 009°54'2 3.1
2020-Aug-12 02:30N 58°02' E 009°54'7 2.3
2020-Aug-11 23:30N 57°57' E 010°03'2 3.2
2020-Aug-11 23:00N 57°57' E 010°06'6 4.0
2020-Aug-11 21:30N 57°55' E 010°17'3 6.0
2020-Aug-11 21:00N 57°55' E 010°22'7 6.5
2020-Aug-11 20:00N 57°54' E 010°34'12 4.9
2020-Aug-11 17:30N 57°52' E 010°57'22 4.8
2020-Aug-11 13:00N 57°32' E 011°14'4 2.5
2020-Aug-11 11:30N 57°29' E 011°15'7 4.4
2020-Aug-11 10:00N 57°23' E 011°20'3 5.9
2020-Aug-11 09:30N 57°20' E 011°22'17 6.7
2020-Aug-11 07:00N 57°05' E 011°35'8 7.0
2020-Aug-11 05:51N 56°57' E 011°42'6 6.4
2020-Aug-11 04:58N 56°53' E 011°47'31 6.3
2020-Aug-11 00:00N 56°25' E 012°16'18 7.3
2020-Aug-10 21:30N 56°09' E 012°30'19 5.3
2020-Aug-10 18:00N 55°53' E 012°46'36 6.5
2020-Aug-10 12:30N 55°17' E 012°49'32 7.9
2020-Aug-10 08:26N 54°53' E 013°26'79 3.9
2020-Aug-09 12:24N 53°42' E 014°28'11 7.9
2020-Aug-09 11:00N 53°33' E 014°37'7 4.6
2020-Aug-09 09:29N 53°26' E 014°34'0 0.0
2020-Aug-09 07:29N 53°26' E 014°34'0 0.0
2020-Aug-09 06:59N 53°26' E 014°34'0 0.0
2020-Aug-09 05:29N 53°26' E 014°34'0 0.0
2020-Aug-09 04:29N 53°26' E 014°34'0 0.0
2020-Aug-08 23:29N 53°26' E 014°34'0 0.0
2020-Aug-08 22:29N 53°26' E 014°34'0 0.0
2020-Aug-08 21:29N 53°26' E 014°34'0 0.0
2020-Aug-08 17:29N 53°26' E 014°34'0 0.0
2020-Aug-08 14:29N 53°26' E 014°34'0 0.0
2020-Aug-08 12:59N 53°26' E 014°34'0 0.0
2020-Aug-08 11:29N 53°26' E 014°34'0 0.0
2020-Aug-08 10:59N 53°26' E 014°34'0 0.0
2020-Aug-08 09:29N 53°26' E 014°34'0 0.0
2020-Aug-08 08:59N 53°26' E 014°34'0 0.0
2020-Aug-08 07:59N 53°26' E 014°34'1 0.2
2020-Aug-08 04:58N 53°25' E 014°34'0 0.0
2020-Aug-08 03:58N 53°25' E 014°34'0 0.0
2020-Aug-08 03:28N 53°25' E 014°34'0 0.0
2020-Aug-08 02:58N 53°25' E 014°34'0 0.0
2020-Aug-08 00:58N 53°25' E 014°34'0 0.0
2020-Aug-07 23:58N 53°25' E 014°34'0 0.0
2020-Aug-07 21:58N 53°25' E 014°34'0 0.0
2020-Aug-07 19:28N 53°25' E 014°34'0 0.0
2020-Aug-07 17:28N 53°25' E 014°34'0 0.0
2020-Aug-07 16:28N 53°25' E 014°34'0 0.0
2020-Aug-07 13:58N 53°25' E 014°34'0 0.0
2020-Aug-07 12:58N 53°25' E 014°34'0 0.0
2020-Aug-07 12:28N 53°25' E 014°34'0 0.0
2020-Aug-07 10:28N 53°25' E 014°34'0 0.0
2020-Aug-07 09:58N 53°25' E 014°34'0 0.0
2020-Aug-07 06:28N 53°25' E 014°34'0 0.0
2020-Aug-07 04:58N 53°25' E 014°34'0 0.0
2020-Aug-07 04:28N 53°25' E 014°34'0 0.0
2020-Aug-07 03:58N 53°25' E 014°34'0 0.0
2020-Aug-07 03:28N 53°25' E 014°34'0 0.0
2020-Aug-07 00:58N 53°25' E 014°34'0 0.0
2020-Aug-06 23:28N 53°25' E 014°34'0 0.0
2020-Aug-06 21:28N 53°25' E 014°34'0 0.0
2020-Aug-06 19:58N 53°25' E 014°34'0 0.0
2020-Aug-06 15:58N 53°25' E 014°34'0 0.0
2020-Aug-06 13:28N 53°25' E 014°34'0 0.0
2020-Aug-06 05:58N 53°25' E 014°34'0 0.0
2020-Aug-06 05:28N 53°25' E 014°34'0 0.0
2020-Aug-06 04:28N 53°25' E 014°34'0 0.0
2020-Aug-06 03:58N 53°25' E 014°34'12 6.1
2020-Aug-06 01:59N 53°37' E 014°35'68 5.1
2020-Aug-05 12:41N 54°36' E 015°32'23 2.8
2020-Aug-05 04:30N 54°59' E 015°32'27 6.7
2020-Aug-05 00:30N 55°24' E 015°16'13 6.7
2020-Aug-04 22:30N 55°37' E 015°08'6 4.1
2020-Aug-04 21:00N 55°42' E 015°01'3 2.6
2020-Aug-04 20:00N 55°44' E 014°59'19 6.4
2020-Aug-04 17:00N 56°03' E 014°54'25 1.0
2020-Aug-03 16:14N 55°39' E 014°41'8 9.9
2020-Aug-03 15:25N 55°32' E 014°36'13 5.3
2020-Aug-03 13:00N 55°19' E 014°37'14 6.7
2020-Aug-03 11:00N 55°06' E 014°33'  

Dump ship's entire track history